sensor_id;sensor_type;location;lat;lon;timestamp;P1;durP1;ratioP1;P2;durP2;ratioP2
7899;SDS011;3995;50.856;4.404;2023-03-03T00:01:37;14.35;;;12.90;;
7899;SDS011;3995;50.856;4.404;2023-03-03T00:04:05;16.35;;;13.43;;
7899;SDS011;3995;50.856;4.404;2023-03-03T00:06:32;14.85;;;13.30;;
7899;SDS011;3995;50.856;4.404;2023-03-03T00:08:59;13.68;;;12.02;;
7899;SDS011;3995;50.856;4.404;2023-03-03T00:11:27;14.60;;;12.63;;
7899;SDS011;3995;50.856;4.404;2023-03-03T00:13:55;12.65;;;11.45;;
7899;SDS011;3995;50.856;4.404;2023-03-03T00:16:23;13.77;;;12.27;;
7899;SDS011;3995;50.856;4.404;2023-03-03T00:18:52;12.50;;;11.20;;
7899;SDS011;3995;50.856;4.404;2023-03-03T00:21:25;13.02;;;11.60;;
7899;SDS011;3995;50.856;4.404;2023-03-03T00:24:14;13.20;;;11.90;;
7899;SDS011;3995;50.856;4.404;2023-03-03T00:26:45;14.55;;;13.07;;
7899;SDS011;3995;50.856;4.404;2023-03-03T00:29:28;14.10;;;12.60;;
7899;SDS011;3995;50.856;4.404;2023-03-03T00:32:08;14.80;;;12.13;;
7899;SDS011;3995;50.856;4.404;2023-03-03T00:34:47;16.75;;;12.68;;
7899;SDS011;3995;50.856;4.404;2023-03-03T00:37:19;13.55;;;11.65;;
7899;SDS011;3995;50.856;4.404;2023-03-03T00:39:51;11.88;;;10.73;;
7899;SDS011;3995;50.856;4.404;2023-03-03T00:42:19;14.00;;;12.60;;
7899;SDS011;3995;50.856;4.404;2023-03-03T00:44:47;17.42;;;12.40;;
7899;SDS011;3995;50.856;4.404;2023-03-03T00:47:25;13.38;;;12.07;;
7899;SDS011;3995;50.856;4.404;2023-03-03T00:49:54;13.90;;;11.90;;
7899;SDS011;3995;50.856;4.404;2023-03-03T00:52:25;13.18;;;11.82;;
7899;SDS011;3995;50.856;4.404;2023-03-03T00:54:54;13.23;;;11.82;;
7899;SDS011;3995;50.856;4.404;2023-03-03T00:57:21;13.38;;;12.07;;
7899;SDS011;3995;50.856;4.404;2023-03-03T00:59:49;13.48;;;12.07;;
7899;SDS011;3995;50.856;4.404;2023-03-03T01:02:16;13.73;;;12.35;;
7899;SDS011;3995;50.856;4.404;2023-03-03T01:04:44;13.75;;;12.35;;
7899;SDS011;3995;50.856;4.404;2023-03-03T01:07:16;13.68;;;12.38;;
7899;SDS011;3995;50.856;4.404;2023-03-03T01:09:43;14.57;;;13.15;;
7899;SDS011;3995;50.856;4.404;2023-03-03T01:12:11;13.18;;;11.85;;
7899;SDS011;3995;50.856;4.404;2023-03-03T01:14:39;13.75;;;12.35;;
7899;SDS011;3995;50.856;4.404;2023-03-03T01:17:08;14.98;;;12.82;;
7899;SDS011;3995;50.856;4.404;2023-03-03T01:19:35;14.05;;;12.57;;
7899;SDS011;3995;50.856;4.404;2023-03-03T01:22:02;14.48;;;12.98;;
7899;SDS011;3995;50.856;4.404;2023-03-03T01:24:29;12.98;;;11.73;;
7899;SDS011;3995;50.856;4.404;2023-03-03T01:26:56;13.00;;;11.70;;
7899;SDS011;3995;50.856;4.404;2023-03-03T01:29:23;14.05;;;12.50;;
7899;SDS011;3995;50.856;4.404;2023-03-03T01:31:50;14.55;;;13.15;;
7899;SDS011;3995;50.856;4.404;2023-03-03T01:34:19;13.80;;;12.40;;
7899;SDS011;3995;50.856;4.404;2023-03-03T01:36:46;15.15;;;13.55;;
7899;SDS011;3995;50.856;4.404;2023-03-03T01:39:13;12.75;;;11.55;;
7899;SDS011;3995;50.856;4.404;2023-03-03T01:41:40;13.77;;;12.32;;
7899;SDS011;3995;50.856;4.404;2023-03-03T01:44:08;14.93;;;13.43;;
7899;SDS011;3995;50.856;4.404;2023-03-03T01:46:50;13.85;;;12.43;;
7899;SDS011;3995;50.856;4.404;2023-03-03T01:49:26;16.52;;;13.13;;
7899;SDS011;3995;50.856;4.404;2023-03-03T01:51:57;16.27;;;14.27;;
7899;SDS011;3995;50.856;4.404;2023-03-03T01:54:29;14.93;;;13.38;;
7899;SDS011;3995;50.856;4.404;2023-03-03T01:57:02;14.70;;;13.23;;
7899;SDS011;3995;50.856;4.404;2023-03-03T01:59:32;15.45;;;13.85;;
7899;SDS011;3995;50.856;4.404;2023-03-03T02:02:02;12.80;;;11.50;;
7899;SDS011;3995;50.856;4.404;2023-03-03T02:04:31;14.88;;;13.38;;
7899;SDS011;3995;50.856;4.404;2023-03-03T02:07:01;14.80;;;13.25;;
7899;SDS011;3995;50.856;4.404;2023-03-03T02:09:36;15.18;;;13.63;;
7899;SDS011;3995;50.856;4.404;2023-03-03T02:12:10;15.10;;;13.60;;
7899;SDS011;3995;50.856;4.404;2023-03-03T02:14:39;14.77;;;13.27;;
7899;SDS011;3995;50.856;4.404;2023-03-03T02:17:06;15.68;;;13.93;;
7899;SDS011;3995;50.856;4.404;2023-03-03T02:19:37;14.65;;;13.18;;
7899;SDS011;3995;50.856;4.404;2023-03-03T02:22:16;13.98;;;12.57;;
7899;SDS011;3995;50.856;4.404;2023-03-03T02:24:49;16.63;;;14.88;;
7899;SDS011;3995;50.856;4.404;2023-03-03T02:27:23;15.73;;;14.13;;
7899;SDS011;3995;50.856;4.404;2023-03-03T02:29:51;16.85;;;14.23;;
7899;SDS011;3995;50.856;4.404;2023-03-03T02:32:18;16.52;;;14.80;;
7899;SDS011;3995;50.856;4.404;2023-03-03T02:34:46;18.77;;;15.48;;
7899;SDS011;3995;50.856;4.404;2023-03-03T02:37:14;17.75;;;15.85;;
7899;SDS011;3995;50.856;4.404;2023-03-03T02:39:42;19.85;;;17.73;;
7899;SDS011;3995;50.856;4.404;2023-03-03T02:42:11;17.60;;;15.80;;
7899;SDS011;3995;50.856;4.404;2023-03-03T02:44:44;20.80;;;17.90;;
7899;SDS011;3995;50.856;4.404;2023-03-03T02:47:11;18.98;;;16.98;;
7899;SDS011;3995;50.856;4.404;2023-03-03T02:49:39;21.33;;;18.80;;
7899;SDS011;3995;50.856;4.404;2023-03-03T02:52:07;20.98;;;18.30;;
7899;SDS011;3995;50.856;4.404;2023-03-03T02:54:36;22.40;;;18.95;;
7899;SDS011;3995;50.856;4.404;2023-03-03T02:57:04;20.15;;;18.00;;
7899;SDS011;3995;50.856;4.404;2023-03-03T02:59:32;23.33;;;18.52;;
7899;SDS011;3995;50.856;4.404;2023-03-03T03:02:02;22.75;;;19.35;;
7899;SDS011;3995;50.856;4.404;2023-03-03T03:04:29;20.77;;;18.33;;
7899;SDS011;3995;50.856;4.404;2023-03-03T03:06:55;22.65;;;18.25;;
7899;SDS011;3995;50.856;4.404;2023-03-03T03:09:24;19.80;;;17.65;;
7899;SDS011;3995;50.856;4.404;2023-03-03T03:11:52;20.65;;;18.45;;
7899;SDS011;3995;50.856;4.404;2023-03-03T03:14:19;19.83;;;17.05;;
7899;SDS011;3995;50.856;4.404;2023-03-03T03:16:47;17.75;;;15.85;;
7899;SDS011;3995;50.856;4.404;2023-03-03T03:19:16;20.23;;;17.98;;
7899;SDS011;3995;50.856;4.404;2023-03-03T03:21:43;20.85;;;18.60;;
7899;SDS011;3995;50.856;4.404;2023-03-03T03:24:10;19.08;;;17.02;;
7899;SDS011;3995;50.856;4.404;2023-03-03T03:26:37;18.52;;;16.17;;
7899;SDS011;3995;50.856;4.404;2023-03-03T03:29:04;20.17;;;17.23;;
7899;SDS011;3995;50.856;4.404;2023-03-03T03:31:32;23.23;;;19.02;;
7899;SDS011;3995;50.856;4.404;2023-03-03T03:33:59;20.15;;;17.95;;
7899;SDS011;3995;50.856;4.404;2023-03-03T03:36:27;22.73;;;18.08;;
7899;SDS011;3995;50.856;4.404;2023-03-03T03:38:54;19.85;;;17.58;;
7899;SDS011;3995;50.856;4.404;2023-03-03T03:41:21;20.83;;;17.90;;
7899;SDS011;3995;50.856;4.404;2023-03-03T03:43:49;20.45;;;17.75;;
7899;SDS011;3995;50.856;4.404;2023-03-03T03:46:16;21.52;;;18.40;;
7899;SDS011;3995;50.856;4.404;2023-03-03T03:48:43;20.65;;;18.45;;
7899;SDS011;3995;50.856;4.404;2023-03-03T03:51:10;23.17;;;20.00;;
7899;SDS011;3995;50.856;4.404;2023-03-03T03:53:39;19.77;;;17.13;;
7899;SDS011;3995;50.856;4.404;2023-03-03T03:56:07;21.90;;;18.83;;
7899;SDS011;3995;50.856;4.404;2023-03-03T03:58:34;19.13;;;17.08;;
7899;SDS011;3995;50.856;4.404;2023-03-03T04:01:01;20.08;;;17.55;;
7899;SDS011;3995;50.856;4.404;2023-03-03T04:03:29;22.85;;;17.33;;
7899;SDS011;3995;50.856;4.404;2023-03-03T04:05:57;20.40;;;17.75;;
7899;SDS011;3995;50.856;4.404;2023-03-03T04:08:24;23.02;;;16.27;;
7899;SDS011;3995;50.856;4.404;2023-03-03T04:10:52;19.83;;;16.42;;
7899;SDS011;3995;50.856;4.404;2023-03-03T04:13:19;19.15;;;16.02;;
7899;SDS011;3995;50.856;4.404;2023-03-03T04:15:47;18.63;;;16.52;;
7899;SDS011;3995;50.856;4.404;2023-03-03T04:18:14;18.58;;;16.20;;
7899;SDS011;3995;50.856;4.404;2023-03-03T04:20:41;18.50;;;16.60;;
7899;SDS011;3995;50.856;4.404;2023-03-03T04:23:08;20.98;;;16.02;;
7899;SDS011;3995;50.856;4.404;2023-03-03T04:25:36;16.27;;;14.52;;
7899;SDS011;3995;50.856;4.404;2023-03-03T04:28:04;17.30;;;15.45;;
7899;SDS011;3995;50.856;4.404;2023-03-03T04:30:32;17.67;;;15.18;;
7899;SDS011;3995;50.856;4.404;2023-03-03T04:32:59;17.42;;;15.63;;
7899;SDS011;3995;50.856;4.404;2023-03-03T04:35:26;17.35;;;15.50;;
7899;SDS011;3995;50.856;4.404;2023-03-03T04:37:53;18.20;;;16.20;;
7899;SDS011;3995;50.856;4.404;2023-03-03T04:40:20;19.15;;;16.50;;
7899;SDS011;3995;50.856;4.404;2023-03-03T04:42:48;19.35;;;15.60;;
7899;SDS011;3995;50.856;4.404;2023-03-03T04:45:16;17.38;;;15.23;;
7899;SDS011;3995;50.856;4.404;2023-03-03T04:47:43;17.90;;;15.98;;
7899;SDS011;3995;50.856;4.404;2023-03-03T04:50:11;18.58;;;16.48;;
7899;SDS011;3995;50.856;4.404;2023-03-03T04:52:38;18.13;;;15.60;;
7899;SDS011;3995;50.856;4.404;2023-03-03T04:55:06;19.23;;;15.95;;
7899;SDS011;3995;50.856;4.404;2023-03-03T04:57:34;18.60;;;16.60;;
7899;SDS011;3995;50.856;4.404;2023-03-03T05:00:02;19.38;;;15.70;;
7899;SDS011;3995;50.856;4.404;2023-03-03T05:02:32;22.83;;;16.35;;
7899;SDS011;3995;50.856;4.404;2023-03-03T05:04:59;17.80;;;15.90;;
7899;SDS011;3995;50.856;4.404;2023-03-03T05:07:26;19.10;;;16.60;;
7899;SDS011;3995;50.856;4.404;2023-03-03T05:09:53;21.17;;;17.90;;
7899;SDS011;3995;50.856;4.404;2023-03-03T05:12:20;20.10;;;17.70;;
7899;SDS011;3995;50.856;4.404;2023-03-03T05:14:48;20.80;;;16.73;;
7899;SDS011;3995;50.856;4.404;2023-03-03T05:17:15;20.30;;;18.15;;
7899;SDS011;3995;50.856;4.404;2023-03-03T05:19:44;19.95;;;16.60;;
7899;SDS011;3995;50.856;4.404;2023-03-03T05:22:12;20.25;;;17.33;;
7899;SDS011;3995;50.856;4.404;2023-03-03T05:24:39;19.75;;;17.35;;
7899;SDS011;3995;50.856;4.404;2023-03-03T05:27:07;20.30;;;17.02;;
7899;SDS011;3995;50.856;4.404;2023-03-03T05:29:35;23.08;;;17.50;;
7899;SDS011;3995;50.856;4.404;2023-03-03T05:32:02;20.58;;;17.45;;
7899;SDS011;3995;50.856;4.404;2023-03-03T05:34:29;19.50;;;17.40;;
7899;SDS011;3995;50.856;4.404;2023-03-03T05:36:58;18.35;;;16.38;;
7899;SDS011;3995;50.856;4.404;2023-03-03T05:39:25;19.52;;;15.50;;
7899;SDS011;3995;50.856;4.404;2023-03-03T05:41:53;16.10;;;14.38;;
7899;SDS011;3995;50.856;4.404;2023-03-03T05:44:20;17.27;;;15.02;;
7899;SDS011;3995;50.856;4.404;2023-03-03T05:46:48;17.45;;;15.60;;
7899;SDS011;3995;50.856;4.404;2023-03-03T05:49:15;19.60;;;16.63;;
7899;SDS011;3995;50.856;4.404;2023-03-03T05:51:42;17.80;;;15.40;;
7899;SDS011;3995;50.856;4.404;2023-03-03T05:54:11;16.27;;;14.57;;
7899;SDS011;3995;50.856;4.404;2023-03-03T05:56:38;17.40;;;15.30;;
7899;SDS011;3995;50.856;4.404;2023-03-03T05:59:05;16.23;;;14.48;;
7899;SDS011;3995;50.856;4.404;2023-03-03T06:01:32;17.02;;;15.23;;
7899;SDS011;3995;50.856;4.404;2023-03-03T06:03:59;16.90;;;14.18;;
7899;SDS011;3995;50.856;4.404;2023-03-03T06:06:27;16.33;;;14.57;;
7899;SDS011;3995;50.856;4.404;2023-03-03T06:08:54;16.85;;;15.02;;
7899;SDS011;3995;50.856;4.404;2023-03-03T06:11:23;17.67;;;14.98;;
7899;SDS011;3995;50.856;4.404;2023-03-03T06:13:50;16.42;;;14.57;;
7899;SDS011;3995;50.856;4.404;2023-03-03T06:16:17;19.35;;;13.43;;
7899;SDS011;3995;50.856;4.404;2023-03-03T06:18:48;16.98;;;13.80;;
7899;SDS011;3995;50.856;4.404;2023-03-03T06:21:15;15.52;;;13.80;;
7899;SDS011;3995;50.856;4.404;2023-03-03T06:23:43;18.30;;;13.65;;
7899;SDS011;3995;50.856;4.404;2023-03-03T06:26:10;20.30;;;14.85;;
7899;SDS011;3995;50.856;4.404;2023-03-03T06:28:43;16.52;;;14.82;;
7899;SDS011;3995;50.856;4.404;2023-03-03T06:31:10;17.08;;;13.73;;
7899;SDS011;3995;50.856;4.404;2023-03-03T06:33:37;15.55;;;13.98;;
7899;SDS011;3995;50.856;4.404;2023-03-03T06:36:04;15.38;;;13.80;;
7899;SDS011;3995;50.856;4.404;2023-03-03T06:38:32;16.38;;;14.68;;
7899;SDS011;3995;50.856;4.404;2023-03-03T06:40:59;19.02;;;13.65;;
7899;SDS011;3995;50.856;4.404;2023-03-03T06:43:31;17.83;;;14.00;;
7899;SDS011;3995;50.856;4.404;2023-03-03T06:46:00;15.15;;;13.55;;
7899;SDS011;3995;50.856;4.404;2023-03-03T06:48:28;14.23;;;12.68;;
7899;SDS011;3995;50.856;4.404;2023-03-03T06:50:55;14.25;;;12.85;;
7899;SDS011;3995;50.856;4.404;2023-03-03T06:53:24;15.45;;;13.57;;
7899;SDS011;3995;50.856;4.404;2023-03-03T06:55:53;16.38;;;13.32;;
7899;SDS011;3995;50.856;4.404;2023-03-03T06:58:22;15.80;;;14.07;;
7899;SDS011;3995;50.856;4.404;2023-03-03T07:00:51;15.82;;;14.13;;
7899;SDS011;3995;50.856;4.404;2023-03-03T07:03:22;17.05;;;13.40;;
7899;SDS011;3995;50.856;4.404;2023-03-03T07:05:53;19.48;;;14.50;;
7899;SDS011;3995;50.856;4.404;2023-03-03T07:08:21;34.75;;;15.50;;
7899;SDS011;3995;50.856;4.404;2023-03-03T07:10:50;14.40;;;12.82;;
7899;SDS011;3995;50.856;4.404;2023-03-03T07:13:19;15.80;;;13.98;;
7899;SDS011;3995;50.856;4.404;2023-03-03T07:15:48;14.45;;;12.95;;
7899;SDS011;3995;50.856;4.404;2023-03-03T07:21:07;22.23;;;13.75;;
7899;SDS011;3995;50.856;4.404;2023-03-03T07:23:41;18.50;;;13.75;;
7899;SDS011;3995;50.856;4.404;2023-03-03T07:26:12;19.70;;;15.05;;
7899;SDS011;3995;50.856;4.404;2023-03-03T07:28:41;18.00;;;15.57;;
7899;SDS011;3995;50.856;4.404;2023-03-03T07:31:16;18.95;;;15.65;;
7899;SDS011;3995;50.856;4.404;2023-03-03T07:33:56;16.40;;;14.50;;
7899;SDS011;3995;50.856;4.404;2023-03-03T07:36:26;20.45;;;14.75;;
7899;SDS011;3995;50.856;4.404;2023-03-03T07:38:56;15.77;;;14.18;;
7899;SDS011;3995;50.856;4.404;2023-03-03T07:41:25;19.60;;;13.93;;
7899;SDS011;3995;50.856;4.404;2023-03-03T07:43:53;23.13;;;17.15;;
7899;SDS011;3995;50.856;4.404;2023-03-03T07:46:27;24.60;;;17.70;;
7899;SDS011;3995;50.856;4.404;2023-03-03T07:49:01;27.30;;;17.20;;
7899;SDS011;3995;50.856;4.404;2023-03-03T07:51:46;26.00;;;16.35;;
7899;SDS011;3995;50.856;4.404;2023-03-03T07:54:16;19.35;;;16.05;;
7899;SDS011;3995;50.856;4.404;2023-03-03T07:56:54;30.83;;;16.67;;
7899;SDS011;3995;50.856;4.404;2023-03-03T07:59:23;21.58;;;16.30;;
7899;SDS011;3995;50.856;4.404;2023-03-03T08:01:52;26.90;;;18.50;;
7899;SDS011;3995;50.856;4.404;2023-03-03T08:04:28;23.45;;;17.92;;
7899;SDS011;3995;50.856;4.404;2023-03-03T08:07:08;23.00;;;17.30;;
7899;SDS011;3995;50.856;4.404;2023-03-03T08:09:44;21.75;;;16.55;;
7899;SDS011;3995;50.856;4.404;2023-03-03T08:12:30;21.48;;;17.20;;
7899;SDS011;3995;50.856;4.404;2023-03-03T08:17:53;16.50;;;14.75;;
7899;SDS011;3995;50.856;4.404;2023-03-03T08:20:38;14.73;;;13.05;;
7899;SDS011;3995;50.856;4.404;2023-03-03T08:23:09;15.70;;;13.90;;
7899;SDS011;3995;50.856;4.404;2023-03-03T08:25:37;16.02;;;13.70;;
7899;SDS011;3995;50.856;4.404;2023-03-03T08:28:05;14.70;;;12.90;;
7899;SDS011;3995;50.856;4.404;2023-03-03T08:30:32;19.20;;;13.68;;
7899;SDS011;3995;50.856;4.404;2023-03-03T08:32:59;14.77;;;13.18;;
7899;SDS011;3995;50.856;4.404;2023-03-03T08:35:27;17.90;;;13.95;;
7899;SDS011;3995;50.856;4.404;2023-03-03T08:37:56;20.60;;;13.40;;
7899;SDS011;3995;50.856;4.404;2023-03-03T08:40:23;19.98;;;13.70;;
7899;SDS011;3995;50.856;4.404;2023-03-03T08:42:51;17.85;;;13.43;;
7899;SDS011;3995;50.856;4.404;2023-03-03T08:45:18;19.85;;;14.13;;
7899;SDS011;3995;50.856;4.404;2023-03-03T08:47:45;18.10;;;13.27;;
7899;SDS011;3995;50.856;4.404;2023-03-03T08:50:13;16.15;;;12.48;;
7899;SDS011;3995;50.856;4.404;2023-03-03T08:52:40;14.65;;;13.15;;
7899;SDS011;3995;50.856;4.404;2023-03-03T08:55:09;17.65;;;12.80;;
7899;SDS011;3995;50.856;4.404;2023-03-03T08:57:37;16.38;;;13.43;;
7899;SDS011;3995;50.856;4.404;2023-03-03T09:00:05;14.10;;;12.60;;
7899;SDS011;3995;50.856;4.404;2023-03-03T09:02:33;13.82;;;11.77;;
7899;SDS011;3995;50.856;4.404;2023-03-03T09:05:01;14.15;;;12.75;;
7899;SDS011;3995;50.856;4.404;2023-03-03T09:07:28;17.83;;;13.60;;
7899;SDS011;3995;50.856;4.404;2023-03-03T09:09:55;14.38;;;11.55;;
7899;SDS011;3995;50.856;4.404;2023-03-03T09:12:26;19.90;;;14.30;;
7899;SDS011;3995;50.856;4.404;2023-03-03T09:14:57;16.67;;;13.45;;
7899;SDS011;3995;50.856;4.404;2023-03-03T09:17:28;18.67;;;14.27;;
7899;SDS011;3995;50.856;4.404;2023-03-03T09:19:58;16.55;;;13.50;;
7899;SDS011;3995;50.856;4.404;2023-03-03T09:22:36;27.70;;;14.40;;
7899;SDS011;3995;50.856;4.404;2023-03-03T09:25:05;17.30;;;15.20;;
7899;SDS011;3995;50.856;4.404;2023-03-03T09:27:46;14.65;;;13.15;;
7899;SDS011;3995;50.856;4.404;2023-03-03T09:30:20;16.35;;;12.18;;
7899;SDS011;3995;50.856;4.404;2023-03-03T09:33:00;17.35;;;14.60;;
7899;SDS011;3995;50.856;4.404;2023-03-03T09:35:42;16.15;;;14.43;;
7899;SDS011;3995;50.856;4.404;2023-03-03T09:38:15;14.38;;;12.85;;
7899;SDS011;3995;50.856;4.404;2023-03-03T09:40:54;15.55;;;13.57;;
7899;SDS011;3995;50.856;4.404;2023-03-03T09:43:39;15.48;;;13.70;;
7899;SDS011;3995;50.856;4.404;2023-03-03T09:46:17;16.05;;;12.82;;
7899;SDS011;3995;50.856;4.404;2023-03-03T09:48:57;19.70;;;12.75;;
7899;SDS011;3995;50.856;4.404;2023-03-03T09:51:40;14.50;;;12.32;;
7899;SDS011;3995;50.856;4.404;2023-03-03T09:54:28;15.65;;;13.95;;
7899;SDS011;3995;50.856;4.404;2023-03-03T09:57:10;13.95;;;12.23;;
7899;SDS011;3995;50.856;4.404;2023-03-03T10:02:43;17.10;;;13.65;;
7899;SDS011;3995;50.856;4.404;2023-03-03T10:05:24;17.35;;;14.18;;
7899;SDS011;3995;50.856;4.404;2023-03-03T10:08:02;15.18;;;13.57;;
7899;SDS011;3995;50.856;4.404;2023-03-03T10:10:47;16.83;;;14.02;;
7899;SDS011;3995;50.856;4.404;2023-03-03T10:13:25;18.33;;;13.75;;
7899;SDS011;3995;50.856;4.404;2023-03-03T10:16:18;16.20;;;14.57;;
7899;SDS011;3995;50.856;4.404;2023-03-03T10:19:14;16.27;;;13.57;;
7899;SDS011;3995;50.856;4.404;2023-03-03T10:21:54;17.15;;;13.75;;
7899;SDS011;3995;50.856;4.404;2023-03-03T10:24:28;20.33;;;15.35;;
7899;SDS011;3995;50.856;4.404;2023-03-03T10:27:00;18.67;;;14.88;;
7899;SDS011;3995;50.856;4.404;2023-03-03T10:29:39;20.73;;;13.77;;
7899;SDS011;3995;50.856;4.404;2023-03-03T10:35:18;20.35;;;14.55;;
7899;SDS011;3995;50.856;4.404;2023-03-03T10:40:56;15.50;;;14.00;;
7899;SDS011;3995;50.856;4.404;2023-03-03T10:43:38;15.80;;;13.85;;
7899;SDS011;3995;50.856;4.404;2023-03-03T10:49:19;19.98;;;14.32;;
7899;SDS011;3995;50.856;4.404;2023-03-03T10:52:18;20.33;;;13.10;;
7899;SDS011;3995;50.856;4.404;2023-03-03T10:55:01;20.20;;;14.30;;
7899;SDS011;3995;50.856;4.404;2023-03-03T10:57:45;17.10;;;13.85;;
7899;SDS011;3995;50.856;4.404;2023-03-03T11:00:23;19.67;;;13.90;;
7899;SDS011;3995;50.856;4.404;2023-03-03T11:03:02;17.08;;;14.48;;
7899;SDS011;3995;50.856;4.404;2023-03-03T11:05:52;15.48;;;13.80;;
7899;SDS011;3995;50.856;4.404;2023-03-03T11:08:26;15.25;;;13.00;;
7899;SDS011;3995;50.856;4.404;2023-03-03T11:11:01;14.85;;;13.35;;
7899;SDS011;3995;50.856;4.404;2023-03-03T11:13:35;14.73;;;12.90;;
7899;SDS011;3995;50.856;4.404;2023-03-03T11:16:15;22.55;;;14.63;;
7899;SDS011;3995;50.856;4.404;2023-03-03T11:18:59;19.50;;;14.63;;
7899;SDS011;3995;50.856;4.404;2023-03-03T11:21:39;15.77;;;13.40;;
7899;SDS011;3995;50.856;4.404;2023-03-03T11:24:15;18.75;;;14.73;;
7899;SDS011;3995;50.856;4.404;2023-03-03T11:29:55;15.85;;;13.32;;
7899;SDS011;3995;50.856;4.404;2023-03-03T11:32:36;16.75;;;13.80;;
7899;SDS011;3995;50.856;4.404;2023-03-03T11:35:18;14.63;;;12.90;;
7899;SDS011;3995;50.856;4.404;2023-03-03T11:37:53;17.20;;;14.15;;
7899;SDS011;3995;50.856;4.404;2023-03-03T11:40:27;22.80;;;13.95;;
7899;SDS011;3995;50.856;4.404;2023-03-03T11:43:05;17.50;;;14.27;;
7899;SDS011;3995;50.856;4.404;2023-03-03T11:45:39;17.40;;;13.35;;
7899;SDS011;3995;50.856;4.404;2023-03-03T11:48:12;17.45;;;13.80;;
7899;SDS011;3995;50.856;4.404;2023-03-03T11:50:45;17.98;;;12.30;;
7899;SDS011;3995;50.856;4.404;2023-03-03T11:56:16;18.90;;;12.50;;
7899;SDS011;3995;50.856;4.404;2023-03-03T11:58:49;17.85;;;12.90;;
7899;SDS011;3995;50.856;4.404;2023-03-03T12:01:27;19.33;;;13.45;;
7899;SDS011;3995;50.856;4.404;2023-03-03T12:04:00;15.57;;;12.93;;
7899;SDS011;3995;50.856;4.404;2023-03-03T12:06:31;17.98;;;12.82;;
7899;SDS011;3995;50.856;4.404;2023-03-03T12:09:12;16.58;;;12.73;;
7899;SDS011;3995;50.856;4.404;2023-03-03T12:11:52;12.52;;;11.20;;
7899;SDS011;3995;50.856;4.404;2023-03-03T12:14:27;14.73;;;13.13;;
7899;SDS011;3995;50.856;4.404;2023-03-03T12:17:15;13.95;;;11.85;;
7899;SDS011;3995;50.856;4.404;2023-03-03T12:19:57;16.80;;;12.77;;
7899;SDS011;3995;50.856;4.404;2023-03-03T12:22:34;15.85;;;13.35;;
7899;SDS011;3995;50.856;4.404;2023-03-03T12:25:31;15.40;;;12.77;;
7899;SDS011;3995;50.856;4.404;2023-03-03T12:28:03;16.52;;;13.55;;
7899;SDS011;3995;50.856;4.404;2023-03-03T12:30:42;13.85;;;12.00;;
7899;SDS011;3995;50.856;4.404;2023-03-03T12:33:25;14.13;;;12.60;;
7899;SDS011;3995;50.856;4.404;2023-03-03T12:36:05;16.55;;;14.00;;
7899;SDS011;3995;50.856;4.404;2023-03-03T12:38:44;24.05;;;13.15;;
7899;SDS011;3995;50.856;4.404;2023-03-03T12:41:18;25.77;;;11.68;;
7899;SDS011;3995;50.856;4.404;2023-03-03T12:43:54;13.68;;;12.18;;
7899;SDS011;3995;50.856;4.404;2023-03-03T12:46:27;15.85;;;11.88;;
7899;SDS011;3995;50.856;4.404;2023-03-03T12:49:01;18.30;;;12.45;;
7899;SDS011;3995;50.856;4.404;2023-03-03T12:51:37;19.70;;;12.18;;
7899;SDS011;3995;50.856;4.404;2023-03-03T12:54:23;13.68;;;11.68;;
7899;SDS011;3995;50.856;4.404;2023-03-03T12:57:03;18.35;;;12.43;;
7899;SDS011;3995;50.856;4.404;2023-03-03T12:59:39;16.45;;;11.40;;
7899;SDS011;3995;50.856;4.404;2023-03-03T13:02:31;12.63;;;11.32;;
7899;SDS011;3995;50.856;4.404;2023-03-03T13:05:13;25.05;;;11.82;;
7899;SDS011;3995;50.856;4.404;2023-03-03T13:07:46;13.57;;;11.90;;
7899;SDS011;3995;50.856;4.404;2023-03-03T13:10:25;13.95;;;11.73;;
7899;SDS011;3995;50.856;4.404;2023-03-03T13:12:57;16.38;;;11.85;;
7899;SDS011;3995;50.856;4.404;2023-03-03T13:15:29;17.25;;;11.85;;
7899;SDS011;3995;50.856;4.404;2023-03-03T13:18:03;16.70;;;12.32;;
7899;SDS011;3995;50.856;4.404;2023-03-03T13:20:50;13.98;;;11.25;;
7899;SDS011;3995;50.856;4.404;2023-03-03T13:23:29;15.70;;;13.02;;
7899;SDS011;3995;50.856;4.404;2023-03-03T13:26:08;13.60;;;10.90;;
7899;SDS011;3995;50.856;4.404;2023-03-03T13:28:41;12.82;;;11.50;;
7899;SDS011;3995;50.856;4.404;2023-03-03T13:31:22;15.02;;;11.40;;
7899;SDS011;3995;50.856;4.404;2023-03-03T13:33:53;16.83;;;12.52;;
7899;SDS011;3995;50.856;4.404;2023-03-03T13:36:23;14.20;;;11.55;;
7899;SDS011;3995;50.856;4.404;2023-03-03T13:38:56;16.13;;;12.38;;
7899;SDS011;3995;50.856;4.404;2023-03-03T13:41:27;15.45;;;12.10;;
7899;SDS011;3995;50.856;4.404;2023-03-03T13:44:01;13.63;;;10.48;;
7899;SDS011;3995;50.856;4.404;2023-03-03T13:46:35;12.93;;;11.52;;
7899;SDS011;3995;50.856;4.404;2023-03-03T13:49:16;11.63;;;10.27;;
7899;SDS011;3995;50.856;4.404;2023-03-03T13:52:01;12.23;;;10.32;;
7899;SDS011;3995;50.856;4.404;2023-03-03T13:54:39;14.35;;;10.88;;
7899;SDS011;3995;50.856;4.404;2023-03-03T13:57:19;15.02;;;10.80;;
7899;SDS011;3995;50.856;4.404;2023-03-03T13:59:59;20.33;;;10.07;;
7899;SDS011;3995;50.856;4.404;2023-03-03T14:02:55;15.57;;;9.38;;
7899;SDS011;3995;50.856;4.404;2023-03-03T14:05:40;12.48;;;9.48;;
7899;SDS011;3995;50.856;4.404;2023-03-03T14:08:12;11.30;;;10.10;;
7899;SDS011;3995;50.856;4.404;2023-03-03T14:10:54;15.82;;;10.73;;
7899;SDS011;3995;50.856;4.404;2023-03-03T14:13:34;11.13;;;9.93;;
7899;SDS011;3995;50.856;4.404;2023-03-03T14:16:13;15.80;;;9.95;;
7899;SDS011;3995;50.856;4.404;2023-03-03T14:18:45;9.35;;;8.40;;
7899;SDS011;3995;50.856;4.404;2023-03-03T14:21:23;13.50;;;10.63;;
7899;SDS011;3995;50.856;4.404;2023-03-03T14:23:56;12.48;;;9.80;;
7899;SDS011;3995;50.856;4.404;2023-03-03T14:26:28;11.93;;;10.50;;
7899;SDS011;3995;50.856;4.404;2023-03-03T14:29:19;13.63;;;8.90;;
7899;SDS011;3995;50.856;4.404;2023-03-03T14:31:56;8.30;;;7.40;;
7899;SDS011;3995;50.856;4.404;2023-03-03T14:34:29;9.65;;;8.15;;
7899;SDS011;3995;50.856;4.404;2023-03-03T14:37:22;17.90;;;9.18;;
7899;SDS011;3995;50.856;4.404;2023-03-03T14:39:59;9.85;;;8.27;;
7899;SDS011;3995;50.856;4.404;2023-03-03T14:42:53;11.48;;;8.38;;
7899;SDS011;3995;50.856;4.404;2023-03-03T14:45:32;10.15;;;8.35;;
7899;SDS011;3995;50.856;4.404;2023-03-03T14:48:14;9.85;;;7.70;;
7899;SDS011;3995;50.856;4.404;2023-03-03T14:50:43;9.77;;;8.50;;
7899;SDS011;3995;50.856;4.404;2023-03-03T14:53:20;12.15;;;9.65;;
7899;SDS011;3995;50.856;4.404;2023-03-03T14:55:55;9.60;;;8.10;;
7899;SDS011;3995;50.856;4.404;2023-03-03T14:58:41;11.77;;;8.10;;
7899;SDS011;3995;50.856;4.404;2023-03-03T15:01:13;11.20;;;8.48;;
7899;SDS011;3995;50.856;4.404;2023-03-03T15:03:48;16.92;;;8.82;;
7899;SDS011;3995;50.856;4.404;2023-03-03T15:09:20;9.85;;;8.55;;
7899;SDS011;3995;50.856;4.404;2023-03-03T15:11:54;13.27;;;8.32;;
7899;SDS011;3995;50.856;4.404;2023-03-03T15:14:24;14.13;;;8.82;;
7899;SDS011;3995;50.856;4.404;2023-03-03T15:16:56;12.68;;;8.50;;
7899;SDS011;3995;50.856;4.404;2023-03-03T15:19:48;7.85;;;7.07;;
7899;SDS011;3995;50.856;4.404;2023-03-03T15:22:28;13.20;;;7.90;;
7899;SDS011;3995;50.856;4.404;2023-03-03T15:25:23;7.93;;;7.10;;
7899;SDS011;3995;50.856;4.404;2023-03-03T15:28:00;9.80;;;6.80;;
7899;SDS011;3995;50.856;4.404;2023-03-03T15:30:35;11.98;;;8.23;;
7899;SDS011;3995;50.856;4.404;2023-03-03T15:33:11;8.40;;;7.22;;
7899;SDS011;3995;50.856;4.404;2023-03-03T15:35:47;12.65;;;7.63;;
7899;SDS011;3995;50.856;4.404;2023-03-03T15:38:22;9.93;;;6.90;;
7899;SDS011;3995;50.856;4.404;2023-03-03T15:40:58;8.38;;;6.85;;
7899;SDS011;3995;50.856;4.404;2023-03-03T15:43:35;11.85;;;8.05;;
7899;SDS011;3995;50.856;4.404;2023-03-03T15:46:09;7.53;;;6.53;;
7899;SDS011;3995;50.856;4.404;2023-03-03T15:48:49;9.88;;;6.75;;
7899;SDS011;3995;50.856;4.404;2023-03-03T15:51:34;7.38;;;6.13;;